Time;durP1;ratioP1;P1;durP2;ratioP2;P2;SDS_P1;SDS_P2;PMS_P1;PMS_P2;Temp;Humidity;BMP_temperature;BMP_pressure;BME280_temperature;BME280_humidity;BME280_pressure;Samples;Min_cycle;Max_cycle;Signal;HPM_P1;HPM_P2
2023/05/01 00:00:54;;;;;;;1.55;0.70;;;;;;;;;;5044867;28;20135;-61
2023/05/01 00:03:22;;;;;;;4.05;1.25;;;;;;;;;;5037786;28;20048;-61
2023/05/01 00:05:51;;;;;;;3.33;1.35;;;;;;;;;;5043446;28;20056;-61
2023/05/01 00:08:19;;;;;;;2.33;1.00;;;;;;;;;;5040895;28;20063;-61
2023/05/01 00:10:48;;;;;;;2.58;1.08;;;;;;;;;;5041794;28;20036;-61
2023/05/01 00:13:20;;;;;;;1.90;1.13;;;;;;;;;;5042158;28;20078;-62
2023/05/01 00:15:49;;;;;;;1.17;0.77;;;;;;;;;;5041464;28;20301;-61
2023/05/01 00:18:18;;;;;;;1.75;1.10;;;;;;;;;;5039106;28;20067;-61
2023/05/01 00:20:47;;;;;;;2.53;1.25;;;;;;;;;;5042898;28;20049;-61
2023/05/01 00:23:15;;;;;;;1.92;0.95;;;;;;;;;;5043469;28;20064;-61
2023/05/01 00:25:43;;;;;;;2.42;1.33;;;;;;;;;;5041591;28;20064;-61
2023/05/01 00:28:12;;;;;;;1.00;0.80;;;;;;;;;;5041630;28;20056;-61
2023/05/01 00:30:40;;;;;;;2.05;1.00;;;;;;;;;;5045969;28;20371;-60
2023/05/01 00:33:08;;;;;;;3.67;1.45;;;;;;;;;;5040439;28;20421;-62
2023/05/01 00:35:39;;;;;;;2.67;1.00;;;;;;;;;;5041893;28;20091;-61
2023/05/01 00:38:07;;;;;;;10.15;1.23;;;;;;;;;;5040596;28;20179;-62
2023/05/01 00:40:42;;;;;;;0.73;0.73;;;;;;;;;;5041564;28;20045;-61
2023/05/01 00:43:11;;;;;;;1.58;1.17;;;;;;;;;;5039699;28;20083;-61
2023/05/01 00:45:40;;;;;;;0.75;0.68;;;;;;;;;;5039501;28;20501;-61
2023/05/01 00:48:09;;;;;;;1.13;0.98;;;;;;;;;;5039907;28;20052;-62
2023/05/01 00:50:40;;;;;;;1.25;0.82;;;;;;;;;;5041297;28;20053;-61
2023/05/01 00:53:08;;;;;;;1.20;0.60;;;;;;;;;;5041477;28;20357;-61
2023/05/01 00:55:37;;;;;;;1.30;1.20;;;;;;;;;;5045671;28;20049;-61
2023/05/01 00:58:05;;;;;;;2.13;0.82;;;;;;;;;;5042335;28;20052;-61
2023/05/01 01:00:33;;;;;;;1.05;0.73;;;;;;;;;;5039772;28;20049;-61
2023/05/01 01:03:03;;;;;;;1.85;1.08;;;;;;;;;;5053157;23;20387;-66
2023/05/01 01:05:33;;;;;;;2.10;1.10;;;;;;;;;;5054746;28;20060;-66
2023/05/01 01:08:06;;;;;;;0.70;0.63;;;;;;;;;;5054894;28;20053;-66
2023/05/01 01:10:37;;;;;;;1.70;0.95;;;;;;;;;;5054279;28;20405;-66
2023/05/01 01:13:10;;;;;;;1.63;0.90;;;;;;;;;;5054613;28;20049;-66
2023/05/01 01:15:44;;;;;;;0.40;0.40;;;;;;;;;;5054235;28;20045;-66
2023/05/01 01:18:17;;;;;;;1.08;0.80;;;;;;;;;;5054043;28;20123;-66
2023/05/01 01:20:48;;;;;;;0.82;0.75;;;;;;;;;;5054884;28;20063;-66
2023/05/01 01:23:40;;;;;;;1.63;1.08;;;;;;;;;;5054994;28;20080;-66
2023/05/01 01:26:14;;;;;;;1.35;0.75;;;;;;;;;;5054616;28;20102;-66
2023/05/01 01:29:03;;;;;;;5.82;1.02;;;;;;;;;;5053799;28;20497;-66
2023/05/01 01:31:35;;;;;;;1.25;0.90;;;;;;;;;;5054163;28;20056;-66
2023/05/01 01:34:08;;;;;;;1.05;0.82;;;;;;;;;;5053697;28;20148;-66
2023/05/01 01:36:41;;;;;;;1.48;1.23;;;;;;;;;;5049691;28;21238;-66
2023/05/01 01:39:13;;;;;;;1.10;0.90;;;;;;;;;;5041386;28;20055;-66
2023/05/01 01:41:43;;;;;;;2.33;1.40;;;;;;;;;;5042687;28;20523;-66
2023/05/01 01:44:13;;;;;;;2.35;1.05;;;;;;;;;;5039378;28;20496;-66
2023/05/01 01:46:42;;;;;;;0.57;0.57;;;;;;;;;;5037892;28;20079;-66
2023/05/01 01:49:16;;;;;;;1.40;1.02;;;;;;;;;;5041476;28;20450;-66
2023/05/01 01:51:47;;;;;;;0.50;0.50;;;;;;;;;;5038629;28;20478;-66
2023/05/01 01:54:19;;;;;;;1.58;0.98;;;;;;;;;;5040838;28;20052;-66
2023/05/01 01:56:47;;;;;;;1.55;0.90;;;;;;;;;;5040172;28;20041;-66
2023/05/01 01:59:16;;;;;;;1.08;0.90;;;;;;;;;;5041718;28;20059;-66
2023/05/01 02:01:45;;;;;;;3.58;1.13;;;;;;;;;;5034885;28;20493;-66
2023/05/01 02:04:15;;;;;;;1.85;0.73;;;;;;;;;;5037653;28;20048;-66
2023/05/01 02:06:46;;;;;;;1.58;0.70;;;;;;;;;;5036501;28;20057;-66
2023/05/01 02:09:17;;;;;;;3.08;1.02;;;;;;;;;;5039661;28;20068;-66
2023/05/01 02:11:46;;;;;;;1.42;1.10;;;;;;;;;;5039962;28;20421;-66
2023/05/01 02:14:15;;;;;;;1.25;1.15;;;;;;;;;;5039862;28;20123;-65
2023/05/01 02:16:44;;;;;;;1.77;1.08;;;;;;;;;;5037466;28;20048;-65
2023/05/01 02:19:15;;;;;;;2.38;0.82;;;;;;;;;;5039675;28;20052;-64
2023/05/01 02:21:45;;;;;;;2.50;1.48;;;;;;;;;;5039532;28;20044;-65
2023/05/01 02:24:14;;;;;;;1.85;1.17;;;;;;;;;;5041562;28;20040;-65
2023/05/01 02:26:44;;;;;;;3.67;1.25;;;;;;;;;;5041053;28;20065;-65
2023/05/01 02:29:12;;;;;;;4.97;1.27;;;;;;;;;;5038577;28;20063;-65
2023/05/01 02:31:40;;;;;;;3.38;1.23;;;;;;;;;;5036616;28;20052;-65
2023/05/01 02:34:09;;;;;;;1.80;1.23;;;;;;;;;;5037285;28;20049;-65
2023/05/01 02:36:39;;;;;;;1.77;1.17;;;;;;;;;;5039705;28;20045;-65
2023/05/01 02:39:07;;;;;;;2.28;0.85;;;;;;;;;;5039142;28;20053;-65
2023/05/01 02:41:36;;;;;;;2.22;1.15;;;;;;;;;;5040265;28;20053;-65
2023/05/01 02:44:05;;;;;;;1.00;0.95;;;;;;;;;;5038764;28;20037;-64
2023/05/01 02:46:35;;;;;;;3.40;1.70;;;;;;;;;;5036948;28;20041;-65
2023/05/01 02:49:04;;;;;;;2.15;0.80;;;;;;;;;;5040268;28;20041;-65
2023/05/01 02:51:33;;;;;;;5.20;1.10;;;;;;;;;;5041888;28;20130;-65
2023/05/01 02:54:03;;;;;;;2.20;1.10;;;;;;;;;;5038561;28;20289;-65
2023/05/01 02:56:31;;;;;;;1.23;0.98;;;;;;;;;;5039005;28;20140;-65
2023/05/01 02:59:00;;;;;;;1.70;0.98;;;;;;;;;;5038632;28;20048;-65
2023/05/01 03:01:28;;;;;;;2.83;1.17;;;;;;;;;;5037047;28;20678;-65
2023/05/01 03:03:57;;;;;;;2.63;1.10;;;;;;;;;;5039231;28;20057;-65
2023/05/01 03:06:27;;;;;;;1.73;0.82;;;;;;;;;;5037422;28;20490;-65
2023/05/01 03:08:56;;;;;;;1.40;1.20;;;;;;;;;;5039040;28;20049;-65
2023/05/01 03:11:25;;;;;;;1.25;0.82;;;;;;;;;;5038355;28;20051;-65
2023/05/01 03:13:54;;;;;;;2.50;1.38;;;;;;;;;;5040720;28;20041;-65
2023/05/01 03:16:22;;;;;;;1.90;1.15;;;;;;;;;;5038122;28;20055;-65
2023/05/01 03:18:50;;;;;;;1.75;1.02;;;;;;;;;;5039778;28;20063;-65
2023/05/01 03:21:19;;;;;;;2.47;1.33;;;;;;;;;;5038439;28;20399;-65
2023/05/01 03:23:47;;;;;;;1.70;1.25;;;;;;;;;;5040852;28;20069;-65
2023/05/01 03:26:16;;;;;;;1.20;0.90;;;;;;;;;;5038158;28;20068;-65
2023/05/01 03:28:45;;;;;;;1.58;1.10;;;;;;;;;;5037606;28;20843;-65
2023/05/01 03:31:14;;;;;;;1.60;1.17;;;;;;;;;;5036597;28;20045;-66
2023/05/01 03:33:42;;;;;;;2.42;1.00;;;;;;;;;;5036928;28;20041;-66
2023/05/01 03:36:11;;;;;;;2.78;1.08;;;;;;;;;;5040244;28;20508;-66
2023/05/01 03:38:39;;;;;;;1.92;1.23;;;;;;;;;;5036864;28;20425;-66
2023/05/01 03:41:07;;;;;;;1.90;1.13;;;;;;;;;;5031802;28;21440;-66
2023/05/01 03:43:36;;;;;;;3.30;1.25;;;;;;;;;;5040547;28;20132;-66
2023/05/01 03:46:06;;;;;;;2.15;1.20;;;;;;;;;;5035486;28;20049;-66
2023/05/01 03:48:34;;;;;;;0.88;0.85;;;;;;;;;;5037901;28;20106;-66
2023/05/01 03:51:03;;;;;;;1.33;1.10;;;;;;;;;;5037767;28;20052;-66
2023/05/01 03:53:31;;;;;;;2.28;1.05;;;;;;;;;;5038594;28;20146;-66
2023/05/01 03:56:00;;;;;;;2.25;0.73;;;;;;;;;;5039211;28;20570;-66
2023/05/01 03:58:28;;;;;;;2.40;1.77;;;;;;;;;;5038348;28;20267;-66
2023/05/01 04:00:59;;;;;;;2.28;1.23;;;;;;;;;;5035932;28;20056;-66
2023/05/01 04:03:29;;;;;;;2.55;1.17;;;;;;;;;;5039187;28;20081;-67
2023/05/01 04:05:58;;;;;;;4.25;1.15;;;;;;;;;;5037599;28;20052;-66
2023/05/01 04:08:26;;;;;;;0.90;0.77;;;;;;;;;;5036062;28;20046;-67
2023/05/01 04:10:55;;;;;;;2.28;1.10;;;;;;;;;;5040413;28;20059;-67
2023/05/01 04:13:23;;;;;;;2.70;1.02;;;;;;;;;;5040500;28;20045;-67
2023/05/01 04:15:54;;;;;;;2.15;1.48;;;;;;;;;;5037763;28;20077;-67
2023/05/01 04:18:22;;;;;;;1.52;0.82;;;;;;;;;;5036905;28;20056;-68
2023/05/01 04:20:52;;;;;;;1.30;1.00;;;;;;;;;;5039565;28;20064;-66
2023/05/01 04:23:20;;;;;;;1.00;0.90;;;;;;;;;;5038292;28;20037;-66
2023/05/01 04:25:50;;;;;;;2.20;1.52;;;;;;;;;;5041535;28;20068;-66
2023/05/01 04:28:19;;;;;;;2.78;0.80;;;;;;;;;;5042150;28;20045;-66
2023/05/01 04:30:47;;;;;;;2.45;1.23;;;;;;;;;;5041653;28;20045;-66
2023/05/01 04:33:15;;;;;;;1.30;0.75;;;;;;;;;;5042167;28;20045;-66
2023/05/01 04:35:44;;;;;;;2.83;0.57;;;;;;;;;;5042765;28;20045;-66
2023/05/01 04:38:13;;;;;;;1.65;0.88;;;;;;;;;;5043035;28;20057;-66
2023/05/01 04:40:42;;;;;;;2.65;1.00;;;;;;;;;;5042144;28;20049;-66
2023/05/01 04:43:10;;;;;;;2.20;1.13;;;;;;;;;;5038667;28;20053;-66
2023/05/01 04:45:38;;;;;;;1.00;0.90;;;;;;;;;;5036521;28;20045;-66
2023/05/01 04:48:07;;;;;;;1.65;1.08;;;;;;;;;;5041686;28;20383;-66
2023/05/01 04:50:36;;;;;;;1.42;0.88;;;;;;;;;;5038613;28;20060;-66
2023/05/01 04:53:04;;;;;;;2.35;1.30;;;;;;;;;;5041516;28;20058;-66
2023/05/01 04:55:34;;;;;;;3.28;1.30;;;;;;;;;;5040806;28;20052;-66
2023/05/01 04:58:03;;;;;;;1.02;0.88;;;;;;;;;;5041922;28;20545;-66
2023/05/01 05:00:32;;;;;;;6.28;1.27;;;;;;;;;;5040883;28;20049;-66
2023/05/01 05:03:01;;;;;;;3.83;1.27;;;;;;;;;;5043935;28;20045;-66
2023/05/01 05:05:29;;;;;;;0.85;0.77;;;;;;;;;;5037519;28;20088;-66
2023/05/01 05:07:58;;;;;;;7.85;1.63;;;;;;;;;;5041217;28;20073;-66
2023/05/01 05:10:26;;;;;;;1.88;1.13;;;;;;;;;;5042946;28;20060;-66
2023/05/01 05:12:56;;;;;;;4.40;1.50;;;;;;;;;;5041180;28;20110;-66
2023/05/01 05:15:24;;;;;;;1.08;0.98;;;;;;;;;;5037538;28;20135;-66
2023/05/01 05:17:52;;;;;;;1.63;1.08;;;;;;;;;;5042989;28;20040;-66
2023/05/01 05:20:23;;;;;;;1.45;1.00;;;;;;;;;;5039572;28;20453;-66
2023/05/01 05:22:52;;;;;;;2.58;1.42;;;;;;;;;;5038668;28;20041;-66
2023/05/01 05:25:20;;;;;;;2.00;1.20;;;;;;;;;;5039595;28;20049;-66
2023/05/01 05:27:48;;;;;;;2.38;1.80;;;;;;;;;;5040963;28;20049;-66
2023/05/01 05:30:18;;;;;;;1.27;0.77;;;;;;;;;;5034067;28;20037;-66
2023/05/01 05:32:47;;;;;;;1.92;1.08;;;;;;;;;;5037277;28;20051;-66
2023/05/01 05:35:15;;;;;;;2.40;1.40;;;;;;;;;;5042193;28;20045;-66
2023/05/01 05:37:43;;;;;;;1.13;1.02;;;;;;;;;;5039852;28;20139;-66
2023/05/01 05:40:13;;;;;;;5.07;2.03;;;;;;;;;;5043184;28;20049;-66
2023/05/01 05:42:42;;;;;;;4.43;1.58;;;;;;;;;;5043022;28;20053;-66
2023/05/01 05:45:10;;;;;;;3.38;1.52;;;;;;;;;;5040335;28;20041;-66
2023/05/01 05:47:40;;;;;;;2.28;1.35;;;;;;;;;;5043950;28;20159;-66
2023/05/01 05:50:09;;;;;;;3.70;1.48;;;;;;;;;;5038871;28;20048;-66
2023/05/01 05:52:37;;;;;;;0.85;0.80;;;;;;;;;;5042117;28;20773;-66
2023/05/01 05:55:06;;;;;;;4.18;1.10;;;;;;;;;;5039991;28;20045;-66
2023/05/01 05:57:36;;;;;;;2.17;1.42;;;;;;;;;;5041628;28;20049;-66
2023/05/01 06:00:05;;;;;;;2.30;1.02;;;;;;;;;;5039279;28;20056;-66
2023/05/01 06:02:33;;;;;;;3.08;1.73;;;;;;;;;;5042597;28;20061;-65
2023/05/01 06:05:03;;;;;;;3.30;1.58;;;;;;;;;;5042126;28;20060;-66
2023/05/01 06:07:32;;;;;;;3.45;1.20;;;;;;;;;;5041596;28;20056;-67
2023/05/01 06:10:04;;;;;;;1.95;1.10;;;;;;;;;;5039585;28;20056;-66
2023/05/01 06:12:32;;;;;;;2.97;1.33;;;;;;;;;;5042405;28;20143;-66
2023/05/01 06:15:05;;;;;;;1.35;0.88;;;;;;;;;;5041901;28;20076;-67
2023/05/01 06:17:34;;;;;;;4.03;1.25;;;;;;;;;;5043221;28;20405;-66
2023/05/01 06:20:05;;;;;;;2.33;1.38;;;;;;;;;;5041893;28;20728;-66
2023/05/01 06:22:33;;;;;;;3.42;1.25;;;;;;;;;;5043688;28;20045;-66
2023/05/01 06:25:03;;;;;;;3.63;1.73;;;;;;;;;;5038485;28;20490;-66
2023/05/01 06:27:31;;;;;;;1.50;1.23;;;;;;;;;;5037966;28;20491;-67
2023/05/01 06:29:59;;;;;;;2.08;1.15;;;;;;;;;;5036634;28;20067;-66
2023/05/01 06:32:28;;;;;;;1.92;1.17;;;;;;;;;;5037594;28;20053;-66
2023/05/01 06:34:56;;;;;;;2.35;1.40;;;;;;;;;;5038290;28;20044;-66
2023/05/01 06:37:26;;;;;;;2.08;1.20;;;;;;;;;;5038726;28;20135;-66
2023/05/01 06:39:55;;;;;;;3.90;1.30;;;;;;;;;;5035882;28;20983;-66
2023/05/01 06:42:23;;;;;;;4.43;1.33;;;;;;;;;;5040951;28;20045;-67
2023/05/01 06:44:51;;;;;;;1.70;1.27;;;;;;;;;;5036821;28;20177;-67
2023/05/01 06:47:20;;;;;;;3.80;1.90;;;;;;;;;;5030257;28;20107;-67
2023/05/01 06:49:49;;;;;;;1.50;1.10;;;;;;;;;;5037696;28;20072;-67
2023/05/01 06:52:17;;;;;;;2.58;1.38;;;;;;;;;;5037057;28;20045;-67
2023/05/01 06:54:47;;;;;;;3.78;1.50;;;;;;;;;;5038221;28;20450;-67
2023/05/01 06:57:15;;;;;;;1.77;1.42;;;;;;;;;;5035832;28;20454;-68
2023/05/01 06:59:44;;;;;;;1.58;0.90;;;;;;;;;;5031946;28;20506;-67
2023/05/01 07:02:12;;;;;;;2.47;1.40;;;;;;;;;;5035674;28;20067;-68
2023/05/01 07:04:43;;;;;;;2.28;1.13;;;;;;;;;;5031376;28;20448;-67
2023/05/01 07:07:11;;;;;;;3.72;1.65;;;;;;;;;;5038588;28;20052;-68
2023/05/01 07:09:40;;;;;;;2.22;1.10;;;;;;;;;;5037361;28;20481;-67
2023/05/01 07:12:11;;;;;;;1.58;1.23;;;;;;;;;;5036628;28;20128;-67
2023/05/01 07:14:40;;;;;;;5.47;1.75;;;;;;;;;;5034422;28;20053;-67
2023/05/01 07:17:09;;;;;;;3.50;1.67;;;;;;;;;;5040158;28;20064;-67
2023/05/01 07:19:37;;;;;;;2.53;1.27;;;;;;;;;;5035090;28;20555;-67
2023/05/01 07:22:06;;;;;;;2.85;1.02;;;;;;;;;;5037476;28;20059;-67
2023/05/01 07:24:34;;;;;;;2.53;1.15;;;;;;;;;;5037668;28;20045;-67
2023/05/01 07:27:02;;;;;;;5.65;1.15;;;;;;;;;;5037735;28;20056;-67
2023/05/01 07:29:32;;;;;;;3.33;0.93;;;;;;;;;;5038600;28;20067;-67
2023/05/01 07:32:00;;;;;;;1.38;1.00;;;;;;;;;;5038537;28;20060;-67
2023/05/01 07:34:29;;;;;;;2.55;1.30;;;;;;;;;;5037312;28;20068;-67
2023/05/01 07:36:57;;;;;;;4.55;1.75;;;;;;;;;;5034473;28;20044;-66
2023/05/01 07:39:26;;;;;;;2.50;1.13;;;;;;;;;;5037684;28;20426;-67
2023/05/01 07:41:55;;;;;;;6.80;1.20;;;;;;;;;;5034422;28;20701;-67
2023/05/01 07:44:23;;;;;;;2.65;1.25;;;;;;;;;;5033665;28;20044;-67
2023/05/01 07:46:52;;;;;;;7.03;1.75;;;;;;;;;;5038477;28;20053;-67
2023/05/01 07:49:21;;;;;;;3.15;1.70;;;;;;;;;;5036891;28;20087;-67
2023/05/01 07:51:50;;;;;;;2.40;1.55;;;;;;;;;;5030828;28;20067;-67
2023/05/01 07:54:20;;;;;;;1.67;1.25;;;;;;;;;;5030765;28;20136;-67
2023/05/01 07:56:49;;;;;;;4.22;1.45;;;;;;;;;;5030873;28;20128;-67
2023/05/01 07:59:17;;;;;;;4.05;1.50;;;;;;;;;;5030343;28;20049;-67
2023/05/01 08:01:46;;;;;;;1.52;1.10;;;;;;;;;;5036548;28;20067;-67
2023/05/01 08:04:15;;;;;;;3.63;1.48;;;;;;;;;;5036345;28;20506;-67
2023/05/01 08:06:44;;;;;;;1.95;1.50;;;;;;;;;;5037632;28;20045;-67
2023/05/01 08:09:13;;;;;;;2.42;1.48;;;;;;;;;;5039433;28;20095;-68
2023/05/01 08:11:41;;;;;;;5.78;2.53;;;;;;;;;;5041053;28;20059;-68
2023/05/01 08:14:09;;;;;;;1.25;1.10;;;;;;;;;;5041379;28;20056;-67
2023/05/01 08:16:38;;;;;;;1.73;1.20;;;;;;;;;;5036222;28;20124;-68
2023/05/01 08:19:06;;;;;;;1.17;1.05;;;;;;;;;;5040494;28;20109;-68
2023/05/01 08:21:36;;;;;;;2.53;1.38;;;;;;;;;;5036459;28;20516;-68
2023/05/01 08:24:05;;;;;;;2.45;0.88;;;;;;;;;;5033433;28;20045;-67
2023/05/01 08:26:33;;;;;;;3.97;1.52;;;;;;;;;;5033806;28;20071;-67
2023/05/01 08:29:01;;;;;;;2.63;1.60;;;;;;;;;;5038361;28;20044;-67
2023/05/01 08:31:30;;;;;;;3.05;1.58;;;;;;;;;;5038525;28;20056;-67
2023/05/01 08:33:58;;;;;;;2.60;1.23;;;;;;;;;;5040355;28;20044;-68
2023/05/01 08:36:26;;;;;;;3.22;1.33;;;;;;;;;;5037235;28;20072;-67
2023/05/01 08:38:56;;;;;;;1.73;1.20;;;;;;;;;;5041963;28;20583;-67
2023/05/01 08:41:25;;;;;;;1.52;1.17;;;;;;;;;;5037569;28;20052;-67
2023/05/01 08:43:54;;;;;;;4.90;1.50;;;;;;;;;;5038601;28;20053;-67
2023/05/01 08:46:26;;;;;;;2.33;1.38;;;;;;;;;;5037488;28;20044;-67
2023/05/01 08:48:58;;;;;;;4.72;1.55;;;;;;;;;;5033151;28;20593;-67
2023/05/01 08:51:28;;;;;;;5.07;1.42;;;;;;;;;;5037890;28;20110;-67
2023/05/01 08:53:58;;;;;;;2.92;1.30;;;;;;;;;;5039068;28;20049;-68
2023/05/01 08:56:27;;;;;;;2.47;1.42;;;;;;;;;;5037235;28;20053;-67
2023/05/01 08:58:56;;;;;;;2.50;1.30;;;;;;;;;;5036334;28;20060;-67
2023/05/01 09:01:25;;;;;;;3.88;1.60;;;;;;;;;;5037025;28;20585;-67
2023/05/01 09:03:54;;;;;;;5.32;1.65;;;;;;;;;;5032748;28;20136;-67
2023/05/01 09:06:23;;;;;;;8.50;1.45;;;;;;;;;;5038564;28;20056;-67
2023/05/01 09:08:51;;;;;;;2.92;1.55;;;;;;;;;;5041524;28;20072;-67
2023/05/01 09:11:22;;;;;;;2.80;1.75;;;;;;;;;;5038215;28;20413;-67
2023/05/01 09:13:51;;;;;;;4.72;1.58;;;;;;;;;;5042516;28;20504;-67
2023/05/01 09:16:19;;;;;;;3.08;1.40;;;;;;;;;;5040519;28;20053;-67
2023/05/01 09:18:48;;;;;;;3.78;1.70;;;;;;;;;;5038397;28;20056;-67
2023/05/01 09:21:16;;;;;;;2.50;0.90;;;;;;;;;;5038895;28;20049;-67
2023/05/01 09:23:45;;;;;;;1.70;1.10;;;;;;;;;;5039008;28;20052;-66
2023/05/01 09:26:13;;;;;;;4.13;1.63;;;;;;;;;;5036952;28;20567;-67
2023/05/01 09:28:44;;;;;;;3.80;1.80;;;;;;;;;;5040868;28;20044;-67
2023/05/01 09:31:22;;;;;;;3.67;1.77;;;;;;;;;;5038336;28;20052;-67
2023/05/01 09:33:54;;;;;;;2.13;1.08;;;;;;;;;;5041061;28;20049;-67
2023/05/01 09:36:23;;;;;;;2.30;1.20;;;;;;;;;;5041182;28;20125;-67
2023/05/01 09:38:52;;;;;;;2.42;1.35;;;;;;;;;;5038948;28;20049;-66
2023/05/01 09:41:21;;;;;;;2.70;1.40;;;;;;;;;;5042850;28;20544;-66
2023/05/01 09:43:55;;;;;;;3.65;0.98;;;;;;;;;;5040458;28;20076;-66
2023/05/01 09:46:23;;;;;;;2.10;1.33;;;;;;;;;;5042471;28;20042;-67
2023/05/01 09:48:59;;;;;;;1.60;1.20;;;;;;;;;;5038482;28;20679;-66
2023/05/01 09:51:28;;;;;;;2.67;1.25;;;;;;;;;;5041148;28;20055;-65
2023/05/01 09:53:57;;;;;;;1.92;1.27;;;;;;;;;;5041514;28;20052;-68
2023/05/01 09:56:26;;;;;;;2.38;1.00;;;;;;;;;;5041083;28;20049;-68
2023/05/01 09:58:56;;;;;;;3.30;1.40;;;;;;;;;;5042271;28;20056;-68
2023/05/01 10:01:38;;;;;;;3.90;1.45;;;;;;;;;;5041094;28;20135;-68
2023/05/01 10:04:07;;;;;;;4.07;1.35;;;;;;;;;;5039795;28;20053;-68
2023/05/01 10:06:36;;;;;;;3.42;1.20;;;;;;;;;;5036725;28;20131;-68
2023/05/01 10:09:06;;;;;;;3.92;2.05;;;;;;;;;;5044596;28;20061;-68
2023/05/01 10:11:48;;;;;;;2.08;1.17;;;;;;;;;;5043751;28;20080;-68
2023/05/01 10:14:19;;;;;;;2.88;1.52;;;;;;;;;;5042588;28;20040;-69
2023/05/01 10:16:48;;;;;;;2.35;1.40;;;;;;;;;;5041155;28;20037;-68
2023/05/01 10:19:17;;;;;;;3.33;1.30;;;;;;;;;;5041819;28;20097;-68
2023/05/01 10:21:45;;;;;;;2.92;1.52;;;;;;;;;;5042725;28;20756;-68
2023/05/01 10:24:15;;;;;;;2.55;1.55;;;;;;;;;;5042520;28;20040;-68
2023/05/01 10:26:44;;;;;;;3.38;1.40;;;;;;;;;;5043493;28;20040;-68
2023/05/01 10:29:13;;;;;;;5.45;2.88;;;;;;;;;;5045608;28;20071;-68
2023/05/01 10:31:42;;;;;;;3.30;1.42;;;;;;;;;;5041949;28;20482;-68
2023/05/01 10:34:12;;;;;;;2.88;1.38;;;;;;;;;;5038656;28;20045;-68
2023/05/01 10:36:45;;;;;;;2.22;1.45;;;;;;;;;;5048096;28;20044;-69
2023/05/01 10:39:28;;;;;;;3.00;1.70;;;;;;;;;;5046933;28;20041;-68
2023/05/01 10:42:10;;;;;;;3.08;1.40;;;;;;;;;;5041681;28;20096;-68
2023/05/01 10:44:38;;;;;;;4.07;1.33;;;;;;;;;;5040814;28;20111;-67
2023/05/01 10:47:26;;;;;;;2.28;1.80;;;;;;;;;;5038582;28;20074;-67
2023/05/01 10:50:06;;;;;;;4.80;1.88;;;;;;;;;;5040567;28;20051;-67
2023/05/01 10:52:50;;;;;;;3.60;1.45;;;;;;;;;;5037576;28;20052;-68
2023/05/01 10:55:33;;;;;;;2.03;1.20;;;;;;;;;;5039901;28;20064;-68
2023/05/01 10:58:02;;;;;;;3.08;1.60;;;;;;;;;;5041283;28;20123;-68
2023/05/01 11:00:32;;;;;;;2.97;1.27;;;;;;;;;;5041346;28;20913;-68
2023/05/01 11:03:19;;;;;;;2.92;1.40;;;;;;;;;;5039654;28;20041;-67
2023/05/01 11:06:08;;;;;;;2.63;1.25;;;;;;;;;;5037946;28;20167;-67
2023/05/01 11:08:37;;;;;;;1.90;1.40;;;;;;;;;;5042072;28;20060;-67
2023/05/01 11:11:32;;;;;;;3.70;1.83;;;;;;;;;;5040523;28;20075;-67
2023/05/01 11:14:01;;;;;;;3.85;1.55;;;;;;;;;;5042238;28;20063;-67
2023/05/01 11:16:41;;;;;;;2.83;1.50;;;;;;;;;;5043564;28;20048;-68
2023/05/01 11:19:11;;;;;;;2.38;1.15;;;;;;;;;;5041206;28;20114;-67
2023/05/01 11:21:41;;;;;;;3.85;1.48;;;;;;;;;;5041400;28;20075;-67
2023/05/01 11:24:10;;;;;;;2.85;1.70;;;;;;;;;;5040371;28;20553;-67
2023/05/01 11:26:39;;;;;;;4.38;1.55;;;;;;;;;;5037342;28;20052;-67
2023/05/01 11:29:09;;;;;;;3.50;1.80;;;;;;;;;;5040470;28;20517;-67
2023/05/01 11:31:37;;;;;;;5.20;2.05;;;;;;;;;;5038513;28;20049;-67
2023/05/01 11:34:06;;;;;;;3.15;2.33;;;;;;;;;;5036889;28;20102;-67
2023/05/01 11:36:49;;;;;;;5.07;2.05;;;;;;;;;;5041020;28;20107;-68
2023/05/01 11:39:18;;;;;;;3.33;1.95;;;;;;;;;;5041942;28;20072;-68
2023/05/01 11:41:46;;;;;;;4.97;2.05;;;;;;;;;;5037427;28;20053;-69
2023/05/01 11:44:16;;;;;;;4.53;1.77;;;;;;;;;;5037992;28;20071;-68
2023/05/01 11:46:45;;;;;;;2.80;1.65;;;;;;;;;;5037239;28;20049;-68
2023/05/01 11:49:13;;;;;;;3.83;2.00;;;;;;;;;;5039630;28;20079;-68
2023/05/01 11:51:41;;;;;;;3.58;2.22;;;;;;;;;;5043694;28;20476;-68
2023/05/01 11:54:12;;;;;;;4.57;2.08;;;;;;;;;;5040316;28;20060;-68
2023/05/01 11:56:43;;;;;;;4.10;2.03;;;;;;;;;;5039326;28;20513;-67
2023/05/01 11:59:12;;;;;;;2.45;1.63;;;;;;;;;;5040813;28;20087;-67
2023/05/01 12:01:42;;;;;;;15.57;2.53;;;;;;;;;;5040444;28;20045;-68
2023/05/01 12:04:10;;;;;;;2.85;1.48;;;;;;;;;;5040897;28;20052;-69
2023/05/01 12:06:42;;;;;;;5.10;1.85;;;;;;;;;;5042283;28;20044;-67
2023/05/01 12:09:16;;;;;;;2.80;1.77;;;;;;;;;;5035824;28;20187;-67
2023/05/01 12:11:44;;;;;;;3.17;2.03;;;;;;;;;;5040903;28;21370;-67
2023/05/01 12:14:14;;;;;;;2.63;2.00;;;;;;;;;;5044661;28;20045;-67
2023/05/01 12:16:43;;;;;;;3.40;1.85;;;;;;;;;;5039105;28;20064;-68
2023/05/01 12:19:13;;;;;;;3.75;1.83;;;;;;;;;;5044471;28;20401;-67
2023/05/01 12:21:42;;;;;;;3.03;1.58;;;;;;;;;;5039550;28;20561;-68
2023/05/01 12:24:10;;;;;;;4.85;2.38;;;;;;;;;;5042187;28;20175;-68
2023/05/01 12:26:40;;;;;;;4.80;2.25;;;;;;;;;;5040165;28;20048;-69
2023/05/01 12:29:10;;;;;;;3.67;2.25;;;;;;;;;;5042227;28;20092;-69
2023/05/01 12:31:38;;;;;;;4.55;2.35;;;;;;;;;;5036995;28;20049;-68
2023/05/01 12:34:07;;;;;;;4.82;2.42;;;;;;;;;;5038668;28;20456;-69
2023/05/01 12:36:37;;;;;;;3.38;1.67;;;;;;;;;;5040160;28;20061;-68
2023/05/01 12:39:06;;;;;;;2.55;1.80;;;;;;;;;;5040260;28;20057;-69
2023/05/01 12:41:36;;;;;;;5.43;2.08;;;;;;;;;;5038301;28;20049;-69
2023/05/01 12:44:15;;;;;;;13.85;2.13;;;;;;;;;;5037133;28;20548;-68
2023/05/01 12:46:44;;;;;;;3.63;1.92;;;;;;;;;;5044529;28;20493;-70
2023/05/01 12:49:17;;;;;;;4.13;2.15;;;;;;;;;;5042194;28;20045;-70
2023/05/01 12:51:47;;;;;;;3.55;1.50;;;;;;;;;;5039726;28;20490;-70
2023/05/01 12:54:20;;;;;;;4.85;2.17;;;;;;;;;;5042872;28;20136;-70
2023/05/01 12:56:48;;;;;;;3.58;1.95;;;;;;;;;;5042758;28;20045;-70
2023/05/01 12:59:22;;;;;;;4.57;2.15;;;;;;;;;;5042016;28;20048;-68
2023/05/01 13:01:57;;;;;;;5.15;1.90;;;;;;;;;;5039388;28;20045;-69
2023/05/01 13:04:26;;;;;;;5.35;2.72;;;;;;;;;;5041155;28;20056;-68
2023/05/01 13:06:55;;;;;;;5.03;2.30;;;;;;;;;;5042178;28;20248;-69
2023/05/01 13:09:25;;;;;;;4.88;2.47;;;;;;;;;;5041350;28;20049;-68
2023/05/01 13:11:58;;;;;;;3.00;1.90;;;;;;;;;;5041778;28;20048;-68
2023/05/01 13:14:28;;;;;;;3.88;1.98;;;;;;;;;;5041788;28;20106;-69
2023/05/01 13:16:56;;;;;;;3.20;1.45;;;;;;;;;;5041594;28;20053;-67
2023/05/01 13:19:27;;;;;;;4.40;1.58;;;;;;;;;;5042965;28;20051;-67
2023/05/01 13:21:56;;;;;;;3.65;1.98;;;;;;;;;;5043414;28;20047;-68
2023/05/01 13:24:25;;;;;;;3.95;1.70;;;;;;;;;;5041641;28;20187;-67
2023/05/01 13:26:59;;;;;;;4.15;1.85;;;;;;;;;;5040784;28;20084;-67
2023/05/01 13:29:33;;;;;;;5.50;2.10;;;;;;;;;;5042214;28;20045;-67
2023/05/01 13:32:01;;;;;;;2.35;1.63;;;;;;;;;;5036520;28;20172;-67
2023/05/01 13:34:31;;;;;;;4.13;1.88;;;;;;;;;;5044732;28;20548;-67
2023/05/01 13:37:00;;;;;;;3.80;1.92;;;;;;;;;;5038380;28;20120;-67
2023/05/01 13:39:29;;;;;;;3.55;2.28;;;;;;;;;;5039554;28;20136;-67
2023/05/01 13:41:57;;;;;;;3.03;1.73;;;;;;;;;;5041664;28;20053;-67
2023/05/01 13:44:27;;;;;;;3.20;1.77;;;;;;;;;;5042926;28;20486;-67
2023/05/01 13:46:57;;;;;;;3.20;2.22;;;;;;;;;;5039208;28;20106;-68
2023/05/01 13:49:25;;;;;;;3.58;1.90;;;;;;;;;;5036358;28;20136;-68
2023/05/01 13:51:54;;;;;;;5.82;1.75;;;;;;;;;;5042307;28;20469;-67
2023/05/01 13:54:23;;;;;;;3.78;1.95;;;;;;;;;;5041648;28;20052;-67
2023/05/01 13:56:51;;;;;;;4.03;2.80;;;;;;;;;;5042828;28;20049;-68
2023/05/01 13:59:20;;;;;;;7.15;2.47;;;;;;;;;;5041702;28;20102;-68
2023/05/01 14:01:48;;;;;;;4.65;2.45;;;;;;;;;;5043088;28;20076;-69
2023/05/01 14:04:20;;;;;;;4.15;1.85;;;;;;;;;;5041799;28;20067;-68
2023/05/01 14:06:49;;;;;;;3.10;1.85;;;;;;;;;;5038431;28;20048;-69
2023/05/01 14:09:18;;;;;;;3.30;1.70;;;;;;;;;;5039735;28;20045;-70
2023/05/01 14:11:47;;;;;;;8.32;3.13;;;;;;;;;;5043639;28;20052;-68
2023/05/01 14:14:16;;;;;;;4.13;2.33;;;;;;;;;;5044751;28;20045;-68
2023/05/01 14:16:47;;;;;;;8.25;2.13;;;;;;;;;;5039703;28;20053;-69
2023/05/01 14:19:16;;;;;;;2.70;1.83;;;;;;;;;;5039309;28;20137;-69
2023/05/01 14:21:46;;;;;;;3.53;2.13;;;;;;;;;;5038085;28;20164;-68
2023/05/01 14:24:17;;;;;;;6.15;2.05;;;;;;;;;;5040955;28;20087;-69
2023/05/01 14:26:49;;;;;;;2.40;1.30;;;;;;;;;;5045688;28;20048;-70
2023/05/01 14:29:23;;;;;;;3.60;1.88;;;;;;;;;;5043148;28;20057;-70
2023/05/01 14:31:53;;;;;;;6.68;1.92;;;;;;;;;;5044819;28;20469;-70
2023/05/01 14:34:22;;;;;;;2.28;1.60;;;;;;;;;;5042621;28;20076;-69
2023/05/01 14:36:52;;;;;;;2.63;1.80;;;;;;;;;;5041875;28;20041;-69
2023/05/01 14:39:20;;;;;;;2.95;1.55;;;;;;;;;;5041490;28;20075;-69
2023/05/01 14:41:49;;;;;;;2.35;1.48;;;;;;;;;;5041607;28;20139;-68
2023/05/01 14:44:19;;;;;;;9.18;1.90;;;;;;;;;;5040127;28;20053;-69
2023/05/01 14:46:50;;;;;;;3.10;1.60;;;;;;;;;;5038295;28;20048;-69
2023/05/01 14:49:19;;;;;;;4.70;2.10;;;;;;;;;;5041568;28;20044;-68
2023/05/01 14:51:48;;;;;;;4.47;1.90;;;;;;;;;;5041224;28;20485;-68
2023/05/01 14:54:18;;;;;;;5.03;2.25;;;;;;;;;;5041025;28;20545;-68
2023/05/01 14:56:47;;;;;;;2.25;1.58;;;;;;;;;;5042574;28;20059;-68
2023/05/01 14:59:16;;;;;;;4.78;1.73;;;;;;;;;;5045447;28;20045;-69